sensor_id;sensor_type;location;lat;lon;timestamp;temperature;humidity
9849;DHT22;4963;51.444;6.528;2023-03-01T00:01:02;0.60;99.90
9849;DHT22;4963;51.444;6.528;2023-03-01T00:03:29;0.60;99.90
9849;DHT22;4963;51.444;6.528;2023-03-01T00:06:00;0.50;99.90
9849;DHT22;4963;51.444;6.528;2023-03-01T00:08:26;0.70;99.90
9849;DHT22;4963;51.444;6.528;2023-03-01T00:11:03;0.40;99.90
9849;DHT22;4963;51.444;6.528;2023-03-01T00:13:30;0.30;99.90
9849;DHT22;4963;51.444;6.528;2023-03-01T00:15:57;0.40;99.90
9849;DHT22;4963;51.444;6.528;2023-03-01T00:18:25;0.50;99.90
9849;DHT22;4963;51.444;6.528;2023-03-01T00:20:53;0.40;99.90
9849;DHT22;4963;51.444;6.528;2023-03-01T00:23:21;0.50;99.90
9849;DHT22;4963;51.444;6.528;2023-03-01T00:25:55;0.70;99.90
9849;DHT22;4963;51.444;6.528;2023-03-01T00:28:21;0.40;99.90
9849;DHT22;4963;51.444;6.528;2023-03-01T00:30:51;0.30;99.90
9849;DHT22;4963;51.444;6.528;2023-03-01T00:33:19;0.40;99.90
9849;DHT22;4963;51.444;6.528;2023-03-01T00:35:49;0.60;99.90
9849;DHT22;4963;51.444;6.528;2023-03-01T00:38:16;0.30;99.90
9849;DHT22;4963;51.444;6.528;2023-03-01T00:40:45;0.30;99.90
9849;DHT22;4963;51.444;6.528;2023-03-01T00:43:15;0.30;99.90
9849;DHT22;4963;51.444;6.528;2023-03-01T00:45:42;0.40;99.90
9849;DHT22;4963;51.444;6.528;2023-03-01T00:48:09;0.40;99.90
9849;DHT22;4963;51.444;6.528;2023-03-01T00:50:36;0.10;99.90
9849;DHT22;4963;51.444;6.528;2023-03-01T00:53:05;0.40;99.90
9849;DHT22;4963;51.444;6.528;2023-03-01T00:55:31;0.30;99.90
9849;DHT22;4963;51.444;6.528;2023-03-01T00:57:58;0.20;99.90
9849;DHT22;4963;51.444;6.528;2023-03-01T01:00:26;0.40;99.90
9849;DHT22;4963;51.444;6.528;2023-03-01T01:02:55;0.20;99.90
9849;DHT22;4963;51.444;6.528;2023-03-01T01:05:22;0.30;99.90
9849;DHT22;4963;51.444;6.528;2023-03-01T01:07:49;0.20;99.90
9849;DHT22;4963;51.444;6.528;2023-03-01T01:10:18;0.30;99.90
9849;DHT22;4963;51.444;6.528;2023-03-01T01:12:47;0.30;99.90
9849;DHT22;4963;51.444;6.528;2023-03-01T01:15:16;0.40;99.90
9849;DHT22;4963;51.444;6.528;2023-03-01T01:17:43;0.40;99.90
9849;DHT22;4963;51.444;6.528;2023-03-01T01:20:11;0.30;99.90
9849;DHT22;4963;51.444;6.528;2023-03-01T01:22:40;0.30;99.90
9849;DHT22;4963;51.444;6.528;2023-03-01T01:25:07;0.50;99.90
9849;DHT22;4963;51.444;6.528;2023-03-01T01:27:41;0.10;99.90
9849;DHT22;4963;51.444;6.528;2023-03-01T01:30:09;0.40;99.90
9849;DHT22;4963;51.444;6.528;2023-03-01T01:32:36;0.20;99.90
9849;DHT22;4963;51.444;6.528;2023-03-01T01:35:03;0.10;99.90
9849;DHT22;4963;51.444;6.528;2023-03-01T01:37:30;0.00;99.90
9849;DHT22;4963;51.444;6.528;2023-03-01T01:39:57;0.00;99.90
9849;DHT22;4963;51.444;6.528;2023-03-01T01:42:26;0.00;99.90
9849;DHT22;4963;51.444;6.528;2023-03-01T01:45:27;0.00;99.90
9849;DHT22;4963;51.444;6.528;2023-03-01T01:47:57;0.10;99.90
9849;DHT22;4963;51.444;6.528;2023-03-01T01:50:32;0.10;99.90
9849;DHT22;4963;51.444;6.528;2023-03-01T01:53:05;0.60;99.90
9849;DHT22;4963;51.444;6.528;2023-03-01T01:55:33;0.00;99.90
9849;DHT22;4963;51.444;6.528;2023-03-01T01:58:04;-0.10;99.90
9849;DHT22;4963;51.444;6.528;2023-03-01T02:00:33;0.00;99.90
9849;DHT22;4963;51.444;6.528;2023-03-01T02:03:03;-0.10;99.90
9849;DHT22;4963;51.444;6.528;2023-03-01T02:05:36;0.60;99.90
9849;DHT22;4963;51.444;6.528;2023-03-01T02:08:05;0.60;99.90
9849;DHT22;4963;51.444;6.528;2023-03-01T02:10:33;0.30;99.90
9849;DHT22;4963;51.444;6.528;2023-03-01T02:13:02;0.20;99.90
9849;DHT22;4963;51.444;6.528;2023-03-01T02:15:33;-0.30;99.90
9849;DHT22;4963;51.444;6.528;2023-03-01T02:18:01;-0.30;99.90
9849;DHT22;4963;51.444;6.528;2023-03-01T02:20:34;-0.30;99.90
9849;DHT22;4963;51.444;6.528;2023-03-01T02:23:02;-0.30;99.90
9849;DHT22;4963;51.444;6.528;2023-03-01T02:25:39;-0.30;99.90
9849;DHT22;4963;51.444;6.528;2023-03-01T02:28:19;-0.30;99.90
9849;DHT22;4963;51.444;6.528;2023-03-01T02:30:48;-0.30;99.90
9849;DHT22;4963;51.444;6.528;2023-03-01T02:33:31;-0.40;99.90
9849;DHT22;4963;51.444;6.528;2023-03-01T02:36:00;-0.40;99.90
9849;DHT22;4963;51.444;6.528;2023-03-01T02:38:28;-0.40;99.90
9849;DHT22;4963;51.444;6.528;2023-03-01T02:40:55;-0.40;99.90
9849;DHT22;4963;51.444;6.528;2023-03-01T02:43:30;-0.20;99.90
9849;DHT22;4963;51.444;6.528;2023-03-01T02:46:03;-0.10;99.90
9849;DHT22;4963;51.444;6.528;2023-03-01T02:48:40;-0.20;99.90
9849;DHT22;4963;51.444;6.528;2023-03-01T02:51:14;-0.30;99.90
9849;DHT22;4963;51.444;6.528;2023-03-01T02:53:53;-0.30;99.90
9849;DHT22;4963;51.444;6.528;2023-03-01T02:56:23;0.70;99.90
9849;DHT22;4963;51.444;6.528;2023-03-01T02:58:52;-0.60;99.90
9849;DHT22;4963;51.444;6.528;2023-03-01T03:01:20;-0.50;99.90
9849;DHT22;4963;51.444;6.528;2023-03-01T03:03:47;-0.90;99.90
9849;DHT22;4963;51.444;6.528;2023-03-01T03:06:14;-0.70;99.90
9849;DHT22;4963;51.444;6.528;2023-03-01T03:08:41;-0.50;99.90
9849;DHT22;4963;51.444;6.528;2023-03-01T03:11:09;-0.40;99.90
9849;DHT22;4963;51.444;6.528;2023-03-01T03:13:36;-0.40;99.90
9849;DHT22;4963;51.444;6.528;2023-03-01T03:16:08;-0.50;99.90
9849;DHT22;4963;51.444;6.528;2023-03-01T03:18:35;-0.50;99.90
9849;DHT22;4963;51.444;6.528;2023-03-01T03:21:02;-0.60;99.90
9849;DHT22;4963;51.444;6.528;2023-03-01T03:23:31;-0.60;99.90
9849;DHT22;4963;51.444;6.528;2023-03-01T03:26:01;-0.50;99.90
9849;DHT22;4963;51.444;6.528;2023-03-01T03:28:29;-0.10;99.90
9849;DHT22;4963;51.444;6.528;2023-03-01T03:30:56;-0.50;99.90
9849;DHT22;4963;51.444;6.528;2023-03-01T03:33:26;-0.50;99.90
9849;DHT22;4963;51.444;6.528;2023-03-01T03:35:53;-0.50;99.90
9849;DHT22;4963;51.444;6.528;2023-03-01T03:38:20;-0.10;99.90
9849;DHT22;4963;51.444;6.528;2023-03-01T03:40:49;-0.50;99.90
9849;DHT22;4963;51.444;6.528;2023-03-01T03:43:18;-0.40;99.90
9849;DHT22;4963;51.444;6.528;2023-03-01T03:45:45;-0.40;99.90
9849;DHT22;4963;51.444;6.528;2023-03-01T03:48:12;-0.60;99.90
9849;DHT22;4963;51.444;6.528;2023-03-01T03:50:41;-0.50;99.90
9849;DHT22;4963;51.444;6.528;2023-03-01T03:53:09;-0.60;99.90
9849;DHT22;4963;51.444;6.528;2023-03-01T03:55:36;-0.30;99.90
9849;DHT22;4963;51.444;6.528;2023-03-01T03:58:05;-0.50;99.90
9849;DHT22;4963;51.444;6.528;2023-03-01T04:00:35;-0.50;99.90
9849;DHT22;4963;51.444;6.528;2023-03-01T04:03:02;-0.50;99.90
9849;DHT22;4963;51.444;6.528;2023-03-01T04:05:33;-0.70;99.90
9849;DHT22;4963;51.444;6.528;2023-03-01T04:08:02;-0.50;99.90
9849;DHT22;4963;51.444;6.528;2023-03-01T04:10:34;-0.60;99.90
9849;DHT22;4963;51.444;6.528;2023-03-01T04:13:05;-0.70;99.90
9849;DHT22;4963;51.444;6.528;2023-03-01T04:15:33;-0.20;99.90
9849;DHT22;4963;51.444;6.528;2023-03-01T04:18:03;-0.60;99.90
9849;DHT22;4963;51.444;6.528;2023-03-01T04:20:34;-0.60;99.90
9849;DHT22;4963;51.444;6.528;2023-03-01T04:23:04;-0.70;99.90
9849;DHT22;4963;51.444;6.528;2023-03-01T04:25:39;-0.90;99.90
9849;DHT22;4963;51.444;6.528;2023-03-01T04:28:09;-0.80;99.90
9849;DHT22;4963;51.444;6.528;2023-03-01T04:30:39;-0.80;99.90
9849;DHT22;4963;51.444;6.528;2023-03-01T04:33:10;-0.90;99.90
9849;DHT22;4963;51.444;6.528;2023-03-01T04:35:38;-1.00;99.90
9849;DHT22;4963;51.444;6.528;2023-03-01T04:38:10;-1.10;99.90
9849;DHT22;4963;51.444;6.528;2023-03-01T04:40:38;-1.00;99.90
9849;DHT22;4963;51.444;6.528;2023-03-01T04:43:09;-1.00;99.90
9849;DHT22;4963;51.444;6.528;2023-03-01T04:45:37;-1.10;99.90
9849;DHT22;4963;51.444;6.528;2023-03-01T04:48:04;-0.90;99.90
9849;DHT22;4963;51.444;6.528;2023-03-01T04:50:32;-1.20;99.90
9849;DHT22;4963;51.444;6.528;2023-03-01T04:52:59;-1.20;99.90
9849;DHT22;4963;51.444;6.528;2023-03-01T04:55:28;-1.30;99.90
9849;DHT22;4963;51.444;6.528;2023-03-01T04:57:55;-1.30;99.90
9849;DHT22;4963;51.444;6.528;2023-03-01T05:00:23;-1.20;99.90
9849;DHT22;4963;51.444;6.528;2023-03-01T05:02:51;-1.20;99.90
9849;DHT22;4963;51.444;6.528;2023-03-01T05:05:24;-0.70;99.90
9849;DHT22;4963;51.444;6.528;2023-03-01T05:07:54;-1.10;99.90
9849;DHT22;4963;51.444;6.528;2023-03-01T05:10:21;-1.30;99.90
9849;DHT22;4963;51.444;6.528;2023-03-01T05:12:53;0.10;99.90
9849;DHT22;4963;51.444;6.528;2023-03-01T05:15:20;-1.20;99.90
9849;DHT22;4963;51.444;6.528;2023-03-01T05:17:53;-1.10;99.90
9849;DHT22;4963;51.444;6.528;2023-03-01T05:20:21;-1.00;99.90
9849;DHT22;4963;51.444;6.528;2023-03-01T05:22:49;-1.10;99.90
9849;DHT22;4963;51.444;6.528;2023-03-01T05:25:17;-1.30;99.90
9849;DHT22;4963;51.444;6.528;2023-03-01T05:27:44;-0.80;99.90
9849;DHT22;4963;51.444;6.528;2023-03-01T05:30:13;-1.00;99.90
9849;DHT22;4963;51.444;6.528;2023-03-01T05:32:41;-0.90;99.90
9849;DHT22;4963;51.444;6.528;2023-03-01T05:35:10;-1.10;99.90
9849;DHT22;4963;51.444;6.528;2023-03-01T05:37:42;-1.10;99.90
9849;DHT22;4963;51.444;6.528;2023-03-01T05:40:10;-0.80;99.90
9849;DHT22;4963;51.444;6.528;2023-03-01T05:42:42;-1.00;99.90
9849;DHT22;4963;51.444;6.528;2023-03-01T05:45:09;-1.00;99.90
9849;DHT22;4963;51.444;6.528;2023-03-01T05:47:39;-0.80;99.90
9849;DHT22;4963;51.444;6.528;2023-03-01T05:50:13;-1.10;99.90
9849;DHT22;4963;51.444;6.528;2023-03-01T05:52:44;-1.00;99.90
9849;DHT22;4963;51.444;6.528;2023-03-01T05:55:11;-1.20;99.90
9849;DHT22;4963;51.444;6.528;2023-03-01T05:57:40;-1.10;99.90
9849;DHT22;4963;51.444;6.528;2023-03-01T06:00:09;-1.10;99.90
9849;DHT22;4963;51.444;6.528;2023-03-01T06:02:37;-1.10;99.90
9849;DHT22;4963;51.444;6.528;2023-03-01T06:05:09;-0.80;99.90
9849;DHT22;4963;51.444;6.528;2023-03-01T06:07:39;-0.90;99.90
9849;DHT22;4963;51.444;6.528;2023-03-01T06:10:07;-1.00;99.90
9849;DHT22;4963;51.444;6.528;2023-03-01T06:12:36;-1.10;99.90
9849;DHT22;4963;51.444;6.528;2023-03-01T06:15:05;-1.30;99.90
9849;DHT22;4963;51.444;6.528;2023-03-01T06:17:44;-1.30;99.90
9849;DHT22;4963;51.444;6.528;2023-03-01T06:20:14;-1.30;99.90
9849;DHT22;4963;51.444;6.528;2023-03-01T06:22:42;-1.30;99.90
9849;DHT22;4963;51.444;6.528;2023-03-01T06:25:10;-1.30;99.90
9849;DHT22;4963;51.444;6.528;2023-03-01T06:27:38;-1.40;99.90
9849;DHT22;4963;51.444;6.528;2023-03-01T06:30:06;-1.30;99.90
9849;DHT22;4963;51.444;6.528;2023-03-01T06:32:33;-1.30;99.90
9849;DHT22;4963;51.444;6.528;2023-03-01T06:35:00;-1.90;99.90
9849;DHT22;4963;51.444;6.528;2023-03-01T06:37:28;-1.40;99.90
9849;DHT22;4963;51.444;6.528;2023-03-01T06:39:55;-1.70;99.90
9849;DHT22;4963;51.444;6.528;2023-03-01T06:42:22;-1.40;99.90
9849;DHT22;4963;51.444;6.528;2023-03-01T06:44:49;-1.40;99.90
9849;DHT22;4963;51.444;6.528;2023-03-01T06:47:16;-1.40;99.90
9849;DHT22;4963;51.444;6.528;2023-03-01T06:49:43;-1.30;99.90
9849;DHT22;4963;51.444;6.528;2023-03-01T06:52:09;-0.80;99.90
9849;DHT22;4963;51.444;6.528;2023-03-01T06:54:38;-1.00;99.90
9849;DHT22;4963;51.444;6.528;2023-03-01T06:57:05;-1.30;99.90
9849;DHT22;4963;51.444;6.528;2023-03-01T06:59:31;-1.00;99.90
9849;DHT22;4963;51.444;6.528;2023-03-01T07:01:58;-1.00;99.90
9849;DHT22;4963;51.444;6.528;2023-03-01T07:04:25;-0.70;99.90
9849;DHT22;4963;51.444;6.528;2023-03-01T07:06:54;-1.20;99.90
9849;DHT22;4963;51.444;6.528;2023-03-01T07:09:21;-1.10;99.90
9849;DHT22;4963;51.444;6.528;2023-03-01T07:11:50;-0.80;99.90
9849;DHT22;4963;51.444;6.528;2023-03-01T07:14:17;-1.00;99.90
9849;DHT22;4963;51.444;6.528;2023-03-01T07:16:45;-0.70;99.90
9849;DHT22;4963;51.444;6.528;2023-03-01T07:19:18;-0.80;99.90
9849;DHT22;4963;51.444;6.528;2023-03-01T07:21:45;-0.80;99.90
9849;DHT22;4963;51.444;6.528;2023-03-01T07:24:12;0.40;99.90
9849;DHT22;4963;51.444;6.528;2023-03-01T07:26:39;-0.60;99.90
9849;DHT22;4963;51.444;6.528;2023-03-01T07:29:09;-0.30;99.90
9849;DHT22;4963;51.444;6.528;2023-03-01T07:31:36;0.10;99.90
9849;DHT22;4963;51.444;6.528;2023-03-01T07:34:03;1.20;99.90
9849;DHT22;4963;51.444;6.528;2023-03-01T07:36:30;1.00;99.90
9849;DHT22;4963;51.444;6.528;2023-03-01T07:38:59;1.30;99.90
9849;DHT22;4963;51.444;6.528;2023-03-01T07:41:28;1.50;99.90
9849;DHT22;4963;51.444;6.528;2023-03-01T07:43:55;1.80;99.90
9849;DHT22;4963;51.444;6.528;2023-03-01T07:46:24;1.80;99.90
9849;DHT22;4963;51.444;6.528;2023-03-01T07:48:51;1.40;99.90
9849;DHT22;4963;51.444;6.528;2023-03-01T07:51:18;1.40;99.90
9849;DHT22;4963;51.444;6.528;2023-03-01T07:53:48;2.40;99.90
9849;DHT22;4963;51.444;6.528;2023-03-01T07:56:16;1.80;99.90
9849;DHT22;4963;51.444;6.528;2023-03-01T07:58:51;1.10;99.90
9849;DHT22;4963;51.444;6.528;2023-03-01T08:01:19;1.20;99.90
9849;DHT22;4963;51.444;6.528;2023-03-01T08:03:49;1.00;99.90
9849;DHT22;4963;51.444;6.528;2023-03-01T08:06:23;1.00;99.90
9849;DHT22;4963;51.444;6.528;2023-03-01T08:08:50;1.00;99.90
9849;DHT22;4963;51.444;6.528;2023-03-01T08:11:20;1.70;99.90
9849;DHT22;4963;51.444;6.528;2023-03-01T08:13:51;1.30;99.90
9849;DHT22;4963;51.444;6.528;2023-03-01T08:16:25;1.30;99.90
9849;DHT22;4963;51.444;6.528;2023-03-01T08:19:10;1.60;99.90
9849;DHT22;4963;51.444;6.528;2023-03-01T08:21:52;1.30;99.90
9849;DHT22;4963;51.444;6.528;2023-03-01T08:24:24;2.50;99.90
9849;DHT22;4963;51.444;6.528;2023-03-01T08:27:14;1.60;99.90
9849;DHT22;4963;51.444;6.528;2023-03-01T08:29:43;1.80;99.90
9849;DHT22;4963;51.444;6.528;2023-03-01T08:32:15;2.00;99.90
9849;DHT22;4963;51.444;6.528;2023-03-01T08:35:00;2.30;99.90
9849;DHT22;4963;51.444;6.528;2023-03-01T08:39:38;2.20;99.90
9849;DHT22;4963;51.444;6.528;2023-03-01T08:41:05;3.30;99.90
9849;DHT22;4963;51.444;6.528;2023-03-01T08:43:46;2.90;99.90
9849;DHT22;4963;51.444;6.528;2023-03-01T08:46:23;2.90;99.90
9849;DHT22;4963;51.444;6.528;2023-03-01T08:48:57;3.10;99.90
9849;DHT22;4963;51.444;6.528;2023-03-01T08:51:41;3.20;99.90
9849;DHT22;4963;51.444;6.528;2023-03-01T08:54:20;3.70;99.90
9849;DHT22;4963;51.444;6.528;2023-03-01T08:57:01;4.10;99.90
9849;DHT22;4963;51.444;6.528;2023-03-01T08:59:28;3.50;99.90
9849;DHT22;4963;51.444;6.528;2023-03-01T09:02:03;3.20;99.90
9849;DHT22;4963;51.444;6.528;2023-03-01T09:04:36;3.60;99.90
9849;DHT22;4963;51.444;6.528;2023-03-01T09:07:05;4.00;99.90
9849;DHT22;4963;51.444;6.528;2023-03-01T09:09:37;3.50;99.90
9849;DHT22;4963;51.444;6.528;2023-03-01T09:12:06;3.70;99.90
9849;DHT22;4963;51.444;6.528;2023-03-01T09:14:36;3.30;99.90
9849;DHT22;4963;51.444;6.528;2023-03-01T09:17:04;3.10;99.90
9849;DHT22;4963;51.444;6.528;2023-03-01T09:19:31;3.20;99.90
9849;DHT22;4963;51.444;6.528;2023-03-01T09:21:58;3.40;99.90
9849;DHT22;4963;51.444;6.528;2023-03-01T09:24:26;2.90;99.90
9849;DHT22;4963;51.444;6.528;2023-03-01T09:27:39;3.10;99.90
9849;DHT22;4963;51.444;6.528;2023-03-01T09:30:14;3.30;99.90
9849;DHT22;4963;51.444;6.528;2023-03-01T09:32:45;3.00;99.90
9849;DHT22;4963;51.444;6.528;2023-03-01T09:35:17;3.10;99.90
9849;DHT22;4963;51.444;6.528;2023-03-01T09:37:55;4.10;99.90
9849;DHT22;4963;51.444;6.528;2023-03-01T09:40:37;3.40;99.90
9849;DHT22;4963;51.444;6.528;2023-03-01T09:43:37;4.70;99.90
9849;DHT22;4963;51.444;6.528;2023-03-01T09:46:13;3.40;99.90
9849;DHT22;4963;51.444;6.528;2023-03-01T09:48:55;4.40;99.90
9849;DHT22;4963;51.444;6.528;2023-03-01T09:51:38;3.40;99.90
9849;DHT22;4963;51.444;6.528;2023-03-01T09:54:15;3.70;99.90
9849;DHT22;4963;51.444;6.528;2023-03-01T10:03:16;4.20;99.90
9849;DHT22;4963;51.444;6.528;2023-03-01T10:05:59;4.30;99.90
9849;DHT22;4963;51.444;6.528;2023-03-01T10:08:33;3.40;99.90
9849;DHT22;4963;51.444;6.528;2023-03-01T10:11:03;3.70;99.90
9849;DHT22;4963;51.444;6.528;2023-03-01T10:13:37;3.70;99.90
9849;DHT22;4963;51.444;6.528;2023-03-01T10:16:13;3.50;99.90
9849;DHT22;4963;51.444;6.528;2023-03-01T10:18:43;3.70;99.90
9849;DHT22;4963;51.444;6.528;2023-03-01T10:21:15;3.70;99.40
9849;DHT22;4963;51.444;6.528;2023-03-01T10:23:43;4.10;99.50
9849;DHT22;4963;51.444;6.528;2023-03-01T10:26:27;3.80;99.00
9849;DHT22;4963;51.444;6.528;2023-03-01T10:29:03;3.80;99.20
9849;DHT22;4963;51.444;6.528;2023-03-01T10:31:41;3.80;99.20
9849;DHT22;4963;51.444;6.528;2023-03-01T10:34:14;4.00;99.00
9849;DHT22;4963;51.444;6.528;2023-03-01T10:36:42;3.80;98.60
9849;DHT22;4963;51.444;6.528;2023-03-01T10:39:15;3.80;97.40
9849;DHT22;4963;51.444;6.528;2023-03-01T10:41:56;4.00;97.30
9849;DHT22;4963;51.444;6.528;2023-03-01T10:44:40;3.90;97.50
9849;DHT22;4963;51.444;6.528;2023-03-01T10:47:16;4.10;97.90
9849;DHT22;4963;51.444;6.528;2023-03-01T10:49:59;3.90;98.60
9849;DHT22;4963;51.444;6.528;2023-03-01T10:52:32;4.00;98.80
9849;DHT22;4963;51.444;6.528;2023-03-01T10:55:02;4.10;99.50
9849;DHT22;4963;51.444;6.528;2023-03-01T10:57:35;3.90;98.80
9849;DHT22;4963;51.444;6.528;2023-03-01T11:00:21;4.10;99.10
9849;DHT22;4963;51.444;6.528;2023-03-01T11:03:03;4.20;99.00
9849;DHT22;4963;51.444;6.528;2023-03-01T11:05:29;4.40;99.20
9849;DHT22;4963;51.444;6.528;2023-03-01T11:08:00;4.40;98.80
9849;DHT22;4963;51.444;6.528;2023-03-01T11:10:30;4.30;98.50
9849;DHT22;4963;51.444;6.528;2023-03-01T11:13:07;4.40;98.10
9849;DHT22;4963;51.444;6.528;2023-03-01T11:15:36;4.50;97.80
9849;DHT22;4963;51.444;6.528;2023-03-01T11:18:03;4.50;97.30
9849;DHT22;4963;51.444;6.528;2023-03-01T11:20:32;4.50;97.40
9849;DHT22;4963;51.444;6.528;2023-03-01T11:23:04;4.50;97.30
9849;DHT22;4963;51.444;6.528;2023-03-01T11:25:35;4.40;96.60
9849;DHT22;4963;51.444;6.528;2023-03-01T11:28:04;4.40;96.60
9849;DHT22;4963;51.444;6.528;2023-03-01T11:30:36;4.60;97.10
9849;DHT22;4963;51.444;6.528;2023-03-01T11:33:13;4.60;97.00
9849;DHT22;4963;51.444;6.528;2023-03-01T11:35:47;4.90;95.90
9849;DHT22;4963;51.444;6.528;2023-03-01T11:38:20;4.70;96.30
9849;DHT22;4963;51.444;6.528;2023-03-01T11:40:52;4.80;96.30
9849;DHT22;4963;51.444;6.528;2023-03-01T11:43:23;4.80;96.40
9849;DHT22;4963;51.444;6.528;2023-03-01T11:46:36;4.80;96.10
9849;DHT22;4963;51.444;6.528;2023-03-01T11:52:16;4.90;96.10
9849;DHT22;4963;51.444;6.528;2023-03-01T11:54:56;5.00;96.50
9849;DHT22;4963;51.444;6.528;2023-03-01T11:57:40;4.90;96.90
9849;DHT22;4963;51.444;6.528;2023-03-01T12:00:30;4.90;97.00
9849;DHT22;4963;51.444;6.528;2023-03-01T12:03:23;5.00;97.20
9849;DHT22;4963;51.444;6.528;2023-03-01T12:06:24;5.00;97.70
9849;DHT22;4963;51.444;6.528;2023-03-01T12:09:02;5.00;97.50
9849;DHT22;4963;51.444;6.528;2023-03-01T12:11:39;5.00;97.40
9849;DHT22;4963;51.444;6.528;2023-03-01T12:14:36;5.10;97.20
9849;DHT22;4963;51.444;6.528;2023-03-01T12:17:28;5.10;97.30
9849;DHT22;4963;51.444;6.528;2023-03-01T12:20:20;5.10;97.00
9849;DHT22;4963;51.444;6.528;2023-03-01T12:23:20;5.20;96.50
9849;DHT22;4963;51.444;6.528;2023-03-01T12:25:54;5.20;97.00
9849;DHT22;4963;51.444;6.528;2023-03-01T12:28:43;5.20;97.30
9849;DHT22;4963;51.444;6.528;2023-03-01T12:37:29;5.40;97.40
9849;DHT22;4963;51.444;6.528;2023-03-01T12:40:15;5.40;98.10
9849;DHT22;4963;51.444;6.528;2023-03-01T12:42:51;5.50;96.90
9849;DHT22;4963;51.444;6.528;2023-03-01T12:45:42;5.40;96.70
9849;DHT22;4963;51.444;6.528;2023-03-01T12:48:28;5.50;97.30
9849;DHT22;4963;51.444;6.528;2023-03-01T12:51:01;5.30;97.40
9849;DHT22;4963;51.444;6.528;2023-03-01T12:53:33;5.30;98.00
9849;DHT22;4963;51.444;6.528;2023-03-01T12:56:04;5.30;97.90
9849;DHT22;4963;51.444;6.528;2023-03-01T12:58:34;5.50;97.70
9849;DHT22;4963;51.444;6.528;2023-03-01T13:01:08;5.50;97.80
9849;DHT22;4963;51.444;6.528;2023-03-01T13:03:56;5.50;97.60
9849;DHT22;4963;51.444;6.528;2023-03-01T13:06:31;5.60;97.50
9849;DHT22;4963;51.444;6.528;2023-03-01T13:09:08;5.50;97.40
9849;DHT22;4963;51.444;6.528;2023-03-01T13:11:41;5.60;96.80
9849;DHT22;4963;51.444;6.528;2023-03-01T13:14:36;5.70;96.60
9849;DHT22;4963;51.444;6.528;2023-03-01T13:17:07;5.60;96.80
9849;DHT22;4963;51.444;6.528;2023-03-01T13:19:56;5.80;96.90
9849;DHT22;4963;51.444;6.528;2023-03-01T13:22:29;5.60;96.90
9849;DHT22;4963;51.444;6.528;2023-03-01T13:25:16;5.70;96.90
9849;DHT22;4963;51.444;6.528;2023-03-01T13:27:47;5.70;96.60
9849;DHT22;4963;51.444;6.528;2023-03-01T13:30:40;5.80;97.40
9849;DHT22;4963;51.444;6.528;2023-03-01T13:33:40;5.80;97.60
9849;DHT22;4963;51.444;6.528;2023-03-01T13:36:08;5.70;97.80
9849;DHT22;4963;51.444;6.528;2023-03-01T13:38:45;5.70;97.70
9849;DHT22;4963;51.444;6.528;2023-03-01T13:41:15;5.80;98.30
9849;DHT22;4963;51.444;6.528;2023-03-01T13:43:50;6.00;98.10
9849;DHT22;4963;51.444;6.528;2023-03-01T13:46:21;6.00;98.60
9849;DHT22;4963;51.444;6.528;2023-03-01T13:48:52;6.10;97.60
9849;DHT22;4963;51.444;6.528;2023-03-01T13:51:25;5.80;97.20
9849;DHT22;4963;51.444;6.528;2023-03-01T13:53:55;5.80;97.20
9849;DHT22;4963;51.444;6.528;2023-03-01T13:56:25;6.30;96.90
9849;DHT22;4963;51.444;6.528;2023-03-01T13:58:57;6.40;96.50
9849;DHT22;4963;51.444;6.528;2023-03-01T14:01:29;6.00;96.60
9849;DHT22;4963;51.444;6.528;2023-03-01T14:03:56;5.90;96.10
9849;DHT22;4963;51.444;6.528;2023-03-01T14:06:24;5.80;95.90
9849;DHT22;4963;51.444;6.528;2023-03-01T14:09:00;5.90;95.80
9849;DHT22;4963;51.444;6.528;2023-03-01T14:14:52;6.20;95.50
9849;DHT22;4963;51.444;6.528;2023-03-01T14:17:46;6.00;95.90
9849;DHT22;4963;51.444;6.528;2023-03-01T14:20:18;6.00;96.00
9849;DHT22;4963;51.444;6.528;2023-03-01T14:22:46;6.10;96.30
9849;DHT22;4963;51.444;6.528;2023-03-01T14:25:25;6.10;95.40
9849;DHT22;4963;51.444;6.528;2023-03-01T14:27:56;6.20;95.60
9849;DHT22;4963;51.444;6.528;2023-03-01T14:30:26;6.20;95.40
9849;DHT22;4963;51.444;6.528;2023-03-01T14:32:57;6.30;95.10
9849;DHT22;4963;51.444;6.528;2023-03-01T14:35:26;6.10;94.90
9849;DHT22;4963;51.444;6.528;2023-03-01T14:37:53;6.20;95.10
9849;DHT22;4963;51.444;6.528;2023-03-01T14:40:26;6.50;95.10
9849;DHT22;4963;51.444;6.528;2023-03-01T14:42:54;6.40;95.00
9849;DHT22;4963;51.444;6.528;2023-03-01T14:45:25;6.20;95.30
9849;DHT22;4963;51.444;6.528;2023-03-01T14:47:53;6.20;95.30
9849;DHT22;4963;51.444;6.528;2023-03-01T14:50:26;6.20;95.10
9849;DHT22;4963;51.444;6.528;2023-03-01T14:52:57;6.20;94.90
9849;DHT22;4963;51.444;6.528;2023-03-01T14:55:28;6.50;95.70
9849;DHT22;4963;51.444;6.528;2023-03-01T14:57:57;6.00;95.00
9849;DHT22;4963;51.444;6.528;2023-03-01T15:00:29;6.20;95.30
9849;DHT22;4963;51.444;6.528;2023-03-01T15:03:03;6.80;95.90
9849;DHT22;4963;51.444;6.528;2023-03-01T15:05:35;6.40;95.20
9849;DHT22;4963;51.444;6.528;2023-03-01T15:08:03;6.30;95.30
9849;DHT22;4963;51.444;6.528;2023-03-01T15:10:33;6.30;95.10
9849;DHT22;4963;51.444;6.528;2023-03-01T15:13:10;6.30;95.20
9849;DHT22;4963;51.444;6.528;2023-03-01T15:15:45;6.40;95.20
9849;DHT22;4963;51.444;6.528;2023-03-01T15:18:15;6.20;95.20
9849;DHT22;4963;51.444;6.528;2023-03-01T15:20:43;6.50;95.20
9849;DHT22;4963;51.444;6.528;2023-03-01T15:23:22;6.70;95.50
9849;DHT22;4963;51.444;6.528;2023-03-01T15:25:51;6.30;95.40
9849;DHT22;4963;51.444;6.528;2023-03-01T15:28:23;6.60;95.00
9849;DHT22;4963;51.444;6.528;2023-03-01T15:30:58;6.20;94.90
9849;DHT22;4963;51.444;6.528;2023-03-01T15:33:30;6.40;94.50
9849;DHT22;4963;51.444;6.528;2023-03-01T15:35:58;6.60;94.50
9849;DHT22;4963;51.444;6.528;2023-03-01T15:38:50;6.30;94.50
9849;DHT22;4963;51.444;6.528;2023-03-01T15:41:24;6.30;94.20
9849;DHT22;4963;51.444;6.528;2023-03-01T15:43:51;6.30;94.40
9849;DHT22;4963;51.444;6.528;2023-03-01T15:46:26;6.30;94.30
9849;DHT22;4963;51.444;6.528;2023-03-01T15:48:56;6.40;94.10
9849;DHT22;4963;51.444;6.528;2023-03-01T15:51:31;6.30;94.50
9849;DHT22;4963;51.444;6.528;2023-03-01T15:54:00;6.20;94.50
9849;DHT22;4963;51.444;6.528;2023-03-01T15:56:27;6.40;94.50
9849;DHT22;4963;51.444;6.528;2023-03-01T15:58:58;6.20;94.90
9849;DHT22;4963;51.444;6.528;2023-03-01T16:01:26;6.20;95.00
9849;DHT22;4963;51.444;6.528;2023-03-01T16:03:53;6.30;94.50
9849;DHT22;4963;51.444;6.528;2023-03-01T16:06:22;6.10;94.70
9849;DHT22;4963;51.444;6.528;2023-03-01T16:08:48;6.20;94.70
9849;DHT22;4963;51.444;6.528;2023-03-01T16:11:17;6.30;94.80
9849;DHT22;4963;51.444;6.528;2023-03-01T16:13:44;6.30;94.50
9849;DHT22;4963;51.444;6.528;2023-03-01T16:16:13;6.10;94.00
9849;DHT22;4963;51.444;6.528;2023-03-01T16:18:43;6.00;93.70
9849;DHT22;4963;51.444;6.528;2023-03-01T16:21:16;6.00;93.80
9849;DHT22;4963;51.444;6.528;2023-03-01T16:23:44;6.00;93.90
9849;DHT22;4963;51.444;6.528;2023-03-01T16:26:11;5.90;94.30
9849;DHT22;4963;51.444;6.528;2023-03-01T16:28:39;5.90;94.40
9849;DHT22;4963;51.444;6.528;2023-03-01T16:31:06;5.80;94.40
9849;DHT22;4963;51.444;6.528;2023-03-01T16:33:33;5.90;94.20
9849;DHT22;4963;51.444;6.528;2023-03-01T16:36:05;5.90;94.10
9849;DHT22;4963;51.444;6.528;2023-03-01T16:38:33;5.80;94.30
9849;DHT22;4963;51.444;6.528;2023-03-01T16:41:00;6.00;94.70
9849;DHT22;4963;51.444;6.528;2023-03-01T16:43:27;5.80;94.80
9849;DHT22;4963;51.444;6.528;2023-03-01T16:45:53;5.70;95.00
9849;DHT22;4963;51.444;6.528;2023-03-01T16:48:20;5.60;95.30
9849;DHT22;4963;51.444;6.528;2023-03-01T16:50:56;5.90;95.50
9849;DHT22;4963;51.444;6.528;2023-03-01T16:53:25;5.60;95.50
9849;DHT22;4963;51.444;6.528;2023-03-01T16:55:55;5.50;95.80
9849;DHT22;4963;51.444;6.528;2023-03-01T16:58:23;5.40;96.10
9849;DHT22;4963;51.444;6.528;2023-03-01T17:00:51;5.40;96.10
9849;DHT22;4963;51.444;6.528;2023-03-01T17:03:19;5.40;96.30